createdAt,value
2018-10-12T00:00:54.651Z,94.89
2018-10-12T00:01:54.622Z,94.89
2018-10-12T00:02:54.560Z,94.17
2018-10-12T00:03:54.534Z,94.35
2018-10-12T00:04:54.456Z,94.17
2018-10-12T00:05:54.406Z,93.78
2018-10-12T00:06:54.358Z,93.69
2018-10-12T00:07:54.331Z,93.78
2018-10-12T00:08:54.294Z,94.55
2018-10-12T00:09:54.221Z,94.35
2018-10-12T00:10:54.183Z,94.45
2018-10-12T00:11:54.122Z,94.26
2018-10-12T00:12:54.075Z,94.17
2018-10-12T00:13:54.044Z,93.78
2018-10-12T00:14:53.972Z,94.26
2018-10-12T00:15:53.966Z,94.64
2018-10-12T00:16:53.881Z,94.84
2018-10-12T00:17:53.839Z,94.55
2018-10-12T00:18:53.809Z,94.55
2018-10-12T00:19:53.741Z,94.64
2018-10-12T00:20:53.693Z,94.45
2018-10-12T00:21:53.637Z,94.35
2018-10-12T00:22:53.590Z,94.55
2018-10-12T00:23:53.576Z,94.84
2018-10-12T00:24:53.487Z,95.41
2018-10-12T00:25:53.463Z,95.03
2018-10-12T00:26:53.409Z,95.22
2018-10-12T00:27:53.352Z,95.12
2018-10-12T00:28:53.318Z,95.51
2018-10-12T00:29:53.243Z,94.64
2018-10-12T00:30:53.210Z,94.84
2018-10-12T00:31:53.160Z,94.45
2018-10-12T00:32:53.101Z,95.41
2018-10-12T00:33:53.082Z,94.55
2018-10-12T00:34:53.016Z,94.55
2018-10-12T00:35:52.957Z,95.31
2018-10-12T00:36:52.914Z,94.74
2018-10-12T00:37:52.854Z,94.74
2018-10-12T00:38:52.865Z,95.31
2018-10-12T00:39:52.758Z,95.22
2018-10-12T00:40:52.708Z,95.60
2018-10-12T00:41:52.664Z,95.60
2018-10-12T00:42:52.610Z,95.70
2018-10-12T00:43:52.568Z,95.51
2018-10-12T00:44:52.543Z,95.12
2018-10-12T00:45:52.473Z,95.12
2018-10-12T00:46:52.425Z,95.60
2018-10-12T00:47:52.374Z,95.89
2018-10-12T00:48:52.320Z,95.41
2018-10-12T00:49:52.316Z,95.60
2018-10-12T00:50:52.221Z,95.89
2018-10-12T00:51:52.178Z,95.22
2018-10-12T00:52:52.132Z,94.74
2018-10-12T00:53:52.080Z,95.56
2018-10-12T00:54:52.063Z,95.65
2018-10-12T00:55:51.983Z,95.65
2018-10-12T00:56:51.935Z,95.56
2018-10-12T00:57:51.887Z,95.89
2018-10-12T00:58:51.832Z,95.51
2018-10-12T00:59:51.809Z,95.89
2018-10-12T01:00:51.740Z,95.84
2018-10-12T01:01:51.687Z,96.51
2018-10-12T01:02:51.667Z,96.22
2018-10-12T01:03:51.593Z,96.32
2018-10-12T01:04:51.564Z,96.89
2018-10-12T01:05:51.493Z,97.09
2018-10-12T01:06:51.447Z,96.61
2018-10-12T01:07:51.407Z,97.47
2018-10-12T01:08:51.351Z,97.28
2018-10-12T01:09:51.327Z,96.99
2018-10-12T01:10:51.251Z,96.80
2018-10-12T01:11:51.202Z,97.09
2018-10-12T01:12:51.153Z,96.61
2018-10-12T01:13:51.113Z,96.80
2018-10-12T01:14:51.085Z,96.80
2018-10-12T01:15:51.015Z,97.09
2018-10-12T01:16:50.960Z,96.42
2018-10-12T01:17:50.911Z,96.61
2018-10-12T01:18:50.870Z,96.61
2018-10-12T01:19:50.852Z,96.61
2018-10-12T01:20:50.795Z,96.32
2018-10-12T01:21:50.717Z,96.70
2018-10-12T01:22:50.675Z,96.51
2018-10-12T01:23:50.619Z,96.22
2018-10-12T01:24:50.595Z,96.61
2018-10-12T01:25:50.519Z,95.94
2018-10-12T01:26:50.473Z,95.84
2018-10-12T01:27:50.434Z,96.51
2018-10-12T01:28:50.374Z,95.56
2018-10-12T01:29:50.351Z,96.32
2018-10-12T01:30:50.283Z,96.70
2018-10-12T01:31:50.235Z,96.89
2018-10-12T01:32:50.188Z,96.42
2018-10-12T01:33:50.129Z,95.56
2018-10-12T01:34:50.112Z,95.84
2018-10-12T01:35:50.036Z,96.13
2018-10-12T01:36:49.987Z,95.94
2018-10-12T01:37:49.937Z,96.42
2018-10-12T01:38:49.893Z,96.66
2018-10-12T01:39:49.861Z,96.37
2018-10-12T01:40:49.793Z,95.79
2018-10-12T01:41:49.746Z,95.65
2018-10-12T01:42:49.699Z,95.27
2018-10-12T01:43:49.644Z,95.46
2018-10-12T01:44:49.630Z,95.84
2018-10-12T01:45:49.544Z,95.12
2018-10-12T01:46:49.497Z,95.51
2018-10-12T01:47:49.450Z,95.79
2018-10-12T01:48:49.402Z,95.51
2018-10-12T01:49:49.384Z,95.22
2018-10-12T01:50:49.300Z,95.03
2018-10-12T01:51:49.260Z,95.41
2018-10-12T01:52:49.205Z,95.31
2018-10-12T01:53:49.159Z,95.12
2018-10-12T01:54:49.153Z,95.03
2018-10-12T01:55:49.061Z,95.51
2018-10-12T01:56:49.019Z,94.74
2018-10-12T01:57:48.963Z,94.55
2018-10-12T01:58:48.917Z,94.55
2018-10-12T01:59:48.891Z,94.84
2018-10-12T02:00:48.818Z,94.84
2018-10-12T02:01:48.770Z,94.35
2018-10-12T02:02:48.719Z,94.93
2018-10-12T02:03:48.675Z,94.45
2018-10-12T02:04:48.648Z,94.84
2018-10-12T02:05:48.575Z,94.55
2018-10-12T02:06:48.524Z,95.51
2018-10-12T02:07:48.478Z,95.03
2018-10-12T02:08:48.439Z,94.74
2018-10-12T02:09:48.419Z,94.35
2018-10-12T02:10:48.334Z,94.45
2018-10-12T02:11:48.282Z,94.55
2018-10-12T02:12:48.237Z,94.84
2018-10-12T02:13:48.188Z,94.55
2018-10-12T02:14:48.137Z,94.74
2018-10-12T02:15:48.115Z,94.17
2018-10-12T02:16:48.040Z,94.35
2018-10-12T02:17:47.999Z,93.98
2018-10-12T02:18:47.947Z,94.35
2018-10-12T02:19:47.894Z,94.55
2018-10-12T02:20:47.867Z,94.07
2018-10-12T02:21:47.799Z,93.69
2018-10-12T02:22:47.753Z,93.78
2018-10-12T02:23:47.708Z,93.59
2018-10-12T02:24:47.651Z,93.40
2018-10-12T02:25:47.626Z,93.78
2018-10-12T02:26:47.565Z,94.35
2018-10-12T02:27:47.508Z,94.55
2018-10-12T02:28:47.456Z,94.55
2018-10-12T02:29:47.417Z,94.74
2018-10-12T02:30:47.393Z,94.55
2018-10-12T02:31:47.312Z,94.74
2018-10-12T02:32:47.265Z,94.74
2018-10-12T02:33:47.229Z,94.35
2018-10-12T02:34:47.176Z,94.55
2018-10-12T02:35:47.148Z,94.74
2018-10-12T02:36:47.071Z,94.64
2018-10-12T02:37:47.027Z,94.55
2018-10-12T02:38:46.972Z,94.74
2018-10-12T02:39:46.937Z,94.93
2018-10-12T02:40:46.903Z,94.55
2018-10-12T02:41:46.829Z,94.74
2018-10-12T02:42:46.785Z,95.41
2018-10-12T02:43:46.732Z,94.84
2018-10-12T02:44:46.684Z,94.35
2018-10-12T02:45:46.664Z,94.93
2018-10-12T02:46:46.604Z,95.22
2018-10-12T02:47:46.538Z,94.45
2018-10-12T02:48:46.492Z,94.35
2018-10-12T02:49:46.445Z,93.88
2018-10-12T02:50:46.418Z,93.59
2018-10-12T02:51:46.345Z,93.78
2018-10-12T02:52:46.300Z,93.40
2018-10-12T02:53:46.247Z,94.17
2018-10-12T02:54:46.200Z,93.88
2018-10-12T02:55:46.177Z,93.59
2018-10-12T02:56:46.101Z,93.78
2018-10-12T02:57:46.060Z,93.59
2018-10-12T02:58:46.003Z,93.78
2018-10-12T02:59:45.953Z,94.26
2018-10-12T03:00:45.928Z,93.88
2018-10-12T03:01:45.860Z,94.26
2018-10-12T03:02:45.808Z,94.55
2018-10-12T03:03:45.763Z,93.98
2018-10-12T03:04:45.717Z,93.69
2018-10-12T03:05:45.689Z,93.88
2018-10-12T03:06:45.617Z,93.78
2018-10-12T03:07:45.567Z,93.40
2018-10-12T03:08:45.516Z,93.30
2018-10-12T03:09:45.470Z,93.11
2018-10-12T03:10:45.455Z,93.21
2018-10-12T03:11:45.370Z,93.40
2018-10-12T03:12:45.328Z,93.11
2018-10-12T03:13:45.280Z,93.11
2018-10-12T03:14:45.224Z,93.11
2018-10-12T03:15:45.204Z,92.92
2018-10-12T03:16:45.130Z,93.40
2018-10-12T03:17:45.082Z,93.78
2018-10-12T03:18:45.034Z,94.26
2018-10-12T03:19:44.985Z,93.69
2018-10-12T03:20:44.960Z,93.59
2018-10-12T03:21:44.889Z,92.44
2018-10-12T03:22:44.841Z,92.35
2018-10-12T03:23:44.801Z,93.02
2018-10-12T03:24:44.751Z,93.11
2018-10-12T03:25:44.726Z,92.73
2018-10-12T03:26:44.649Z,92.54
2018-10-12T03:27:44.593Z,92.73
2018-10-12T03:28:44.547Z,92.73
2018-10-12T03:29:44.504Z,92.25
2018-10-12T03:30:44.476Z,92.73
2018-10-12T03:31:44.408Z,92.35
2018-10-12T03:32:44.351Z,92.82
2018-10-12T03:33:44.322Z,92.82
2018-10-12T03:34:44.256Z,92.44
2018-10-12T03:35:44.255Z,92.35
2018-10-12T03:36:44.163Z,92.63
2018-10-12T03:37:44.137Z,93.21
2018-10-12T03:38:44.075Z,92.73
2018-10-12T03:39:44.015Z,92.73
2018-10-12T03:40:43.968Z,92.82
2018-10-12T03:41:43.940Z,92.35
2018-10-12T03:42:43.869Z,92.73
2018-10-12T03:43:43.818Z,92.54
2018-10-12T03:44:43.773Z,92.92
2018-10-12T03:45:43.726Z,92.44
2018-10-12T03:46:43.698Z,92.82
2018-10-12T03:47:43.629Z,92.73
2018-10-12T03:48:43.578Z,92.82
2018-10-12T03:49:43.527Z,93.49
2018-10-12T03:50:43.485Z,92.97
2018-10-12T03:51:43.491Z,93.11
2018-10-12T03:52:43.391Z,92.35
2018-10-12T03:53:43.335Z,93.21
2018-10-12T03:54:43.290Z,92.82
2018-10-12T03:55:43.243Z,92.82
2018-10-12T03:56:43.224Z,93.21
2018-10-12T03:57:43.151Z,93.30
2018-10-12T03:58:43.090Z,92.82
2018-10-12T03:59:43.044Z,92.44
2018-10-12T04:00:42.993Z,92.73
2018-10-12T04:01:42.972Z,92.44
2018-10-12T04:02:42.930Z,92.73
2018-10-12T04:03:42.853Z,92.63
2018-10-12T04:04:42.801Z,93.30
2018-10-12T04:05:42.750Z,93.40
2018-10-12T04:06:42.731Z,93.21
2018-10-12T04:07:42.657Z,93.11
2018-10-12T04:08:42.609Z,93.21
2018-10-12T04:09:42.569Z,93.78
2018-10-12T04:10:42.511Z,93.78
2018-10-12T04:11:42.485Z,94.45
2018-10-12T04:12:42.560Z,95.12
2018-10-12T04:13:42.363Z,95.51
2018-10-12T04:14:42.328Z,95.22
2018-10-12T04:15:42.268Z,95.12
2018-10-12T04:16:42.247Z,95.22
2018-10-12T04:17:42.174Z,95.12
2018-10-12T04:18:42.121Z,95.70
2018-10-12T04:19:42.075Z,95.70
2018-10-12T04:20:42.027Z,95.46
2018-10-12T04:21:42.010Z,95.56
2018-10-12T04:22:41.929Z,95.56
2018-10-12T04:23:41.884Z,95.65
2018-10-12T04:24:41.829Z,96.70
2018-10-12T04:25:41.781Z,96.32
2018-10-12T04:26:41.763Z,96.61
2018-10-12T04:27:41.685Z,97.47
2018-10-12T04:28:41.639Z,97.18
2018-10-12T04:29:41.590Z,96.89
2018-10-12T04:30:41.542Z,96.70
2018-10-12T04:31:41.528Z,96.75
2018-10-12T04:32:41.439Z,97.09
2018-10-12T04:33:41.396Z,97.33
2018-10-12T04:34:41.349Z,97.42
2018-10-12T04:35:41.305Z,97.71
2018-10-12T04:36:48.444Z,97.61
2018-10-12T04:37:41.200Z,98.00
2018-10-12T04:38:41.150Z,98.09
2018-10-12T04:39:41.103Z,98.09
2018-10-12T04:40:41.051Z,97.52
2018-10-12T04:41:41.030Z,97.61
2018-10-12T04:42:40.958Z,97.52
2018-10-12T04:43:40.911Z,97.04
2018-10-12T04:44:40.858Z,97.61
2018-10-12T04:45:40.811Z,97.42
2018-10-12T04:46:40.785Z,97.42
2018-10-12T04:47:40.718Z,98.47
2018-10-12T04:48:40.673Z,98.28
2018-10-12T04:49:40.612Z,98.19
2018-10-12T04:50:40.564Z,97.90
2018-10-12T04:51:40.558Z,98.38
2018-10-12T04:52:40.482Z,98.38
2018-10-12T04:53:40.440Z,97.71
2018-10-12T04:54:40.371Z,98.28
2018-10-12T04:55:40.319Z,98.00
2018-10-12T04:56:40.268Z,98.00
2018-10-12T04:57:40.250Z,97.90
2018-10-12T04:58:40.190Z,98.00
2018-10-12T04:59:40.126Z,98.38
2018-10-12T05:00:40.108Z,97.80
2018-10-12T05:01:40.030Z,98.38
2018-10-12T05:02:40.004Z,98.28
2018-10-12T05:03:39.931Z,98.47
2018-10-12T05:04:39.887Z,98.38
2018-10-12T05:05:39.832Z,98.00
2018-10-12T05:06:39.779Z,98.09
2018-10-12T05:07:39.807Z,98.38
2018-10-12T05:08:39.686Z,98.19
2018-10-12T05:09:39.652Z,98.57
2018-10-12T05:10:39.589Z,98.38
2018-10-12T05:11:39.542Z,98.28
2018-10-12T05:12:39.514Z,98.57
2018-10-12T05:13:39.450Z,99.15
2018-10-12T05:14:39.390Z,98.95
2018-10-12T05:15:39.349Z,99.05
2018-10-12T05:16:39.293Z,99.33
2018-10-12T05:17:39.269Z,99.24
2018-10-12T05:18:39.196Z,98.86
2018-10-12T05:19:39.148Z,99.24
2018-10-12T05:20:39.104Z,98.66
2018-10-12T05:21:39.050Z,98.86
2018-10-12T05:22:39.030Z,98.57
2018-10-12T05:23:38.955Z,99.05
2018-10-12T05:24:38.901Z,99.72
2018-10-12T05:25:38.875Z,99.52
2018-10-12T05:26:38.808Z,99.05
2018-10-12T05:27:38.782Z,99.24
2018-10-12T05:28:38.703Z,99.62
2018-10-12T05:29:38.659Z,99.57
2018-10-12T05:30:38.629Z,99.57
2018-10-12T05:31:38.560Z,99.99
2018-10-12T05:32:38.531Z,99.99
2018-10-12T05:33:38.459Z,99.96
2018-10-12T05:34:38.415Z,99.99
2018-10-12T05:35:38.368Z,99.99
2018-10-12T05:36:38.310Z,99.76
2018-10-12T05:37:38.287Z,99.99
2018-10-12T05:38:38.215Z,99.99
2018-10-12T05:39:38.165Z,99.99
2018-10-12T05:40:38.119Z,99.99
2018-10-12T05:41:38.068Z,99.99
2018-10-12T05:42:38.085Z,99.99
2018-10-12T05:43:38.051Z,99.99
2018-10-12T05:44:37.921Z,99.99
2018-10-12T05:45:37.872Z,99.99
2018-10-12T05:46:37.826Z,99.76
2018-10-12T05:47:37.797Z,99.99
2018-10-12T05:48:37.731Z,99.57
2018-10-12T05:49:37.677Z,99.62
2018-10-12T05:50:37.627Z,99.76
2018-10-12T05:51:37.582Z,99.99
2018-10-12T05:52:37.549Z,99.99
2018-10-12T05:53:37.481Z,99.99
2018-10-12T05:54:37.437Z,99.99
2018-10-12T05:55:37.400Z,99.99
2018-10-12T05:56:37.333Z,99.99
2018-10-12T05:57:37.308Z,99.52
2018-10-12T05:58:37.233Z,99.43
2018-10-12T05:59:37.186Z,99.72
2018-10-12T06:00:37.135Z,99.72
2018-10-12T06:01:37.092Z,99.62
2018-10-12T06:02:37.062Z,99.24
2018-10-12T06:03:36.988Z,99.81
2018-10-12T06:04:36.934Z,99.62
2018-10-12T06:05:36.890Z,99.72
2018-10-12T06:06:36.840Z,99.52
2018-10-12T06:07:36.818Z,99.99
2018-10-12T06:08:36.739Z,99.91
2018-10-12T06:09:36.726Z,99.52
2018-10-12T06:10:36.647Z,99.99
2018-10-12T06:11:36.597Z,99.99
2018-10-12T06:12:36.588Z,99.43
2018-10-12T06:13:36.502Z,99.99
2018-10-12T06:14:36.455Z,99.62
2018-10-12T06:15:36.423Z,99.81
2018-10-12T06:16:36.355Z,99.81
2018-10-12T06:17:36.304Z,99.81
2018-10-12T06:18:36.275Z,99.72
2018-10-12T06:19:36.204Z,99.52
2018-10-12T06:20:36.159Z,99.62
2018-10-12T06:21:36.171Z,99.99
2018-10-12T06:22:36.064Z,99.81
2018-10-12T06:23:36.036Z,99.99
2018-10-12T06:24:35.959Z,99.99
2018-10-12T06:25:35.919Z,99.99
2018-10-12T06:26:35.867Z,99.62
2018-10-12T06:27:35.813Z,99.99
2018-10-12T06:28:35.785Z,99.81
2018-10-12T06:29:35.718Z,99.81
2018-10-12T06:30:35.671Z,99.99
2018-10-12T06:31:35.620Z,99.72
2018-10-12T06:32:35.565Z,99.99
2018-10-12T06:33:35.577Z,99.99
2018-10-12T06:34:35.469Z,99.99
2018-10-12T06:35:35.424Z,99.99
2018-10-12T06:36:35.371Z,99.99
2018-10-12T06:37:35.327Z,99.99
2018-10-12T06:38:35.309Z,99.99
2018-10-12T06:39:35.228Z,99.99
2018-10-12T06:40:35.193Z,99.99
2018-10-12T06:41:35.229Z,99.99
2018-10-12T06:42:35.078Z,99.99
2018-10-12T06:43:35.054Z,99.99
2018-10-12T06:44:34.980Z,99.99
2018-10-12T06:45:34.944Z,99.81
2018-10-12T06:46:34.951Z,99.81
2018-10-12T06:47:34.840Z,99.72
2018-10-12T06:48:34.813Z,99.99
2018-10-12T06:49:34.738Z,99.99
2018-10-12T06:50:34.689Z,99.58
2018-10-12T06:51:34.635Z,99.77
2018-10-12T06:52:34.588Z,99.10
2018-10-12T06:53:34.566Z,99.19
2018-10-12T06:54:34.488Z,98.81
2018-10-12T06:55:34.445Z,97.95
2018-10-12T06:56:34.395Z,98.52
2018-10-12T06:57:34.344Z,97.90
2018-10-12T06:58:34.325Z,98.38
2018-10-12T06:59:34.248Z,97.52
2018-10-12T07:00:34.207Z,97.33
2018-10-12T07:01:34.151Z,97.52
2018-10-12T07:02:34.100Z,96.37
2018-10-12T07:03:34.075Z,96.61
2018-10-12T07:04:34.007Z,95.84
2018-10-12T07:05:33.986Z,95.65
2018-10-12T07:06:33.907Z,96.13
2018-10-12T07:07:33.855Z,95.60
2018-10-12T07:08:33.829Z,95.31
2018-10-12T07:09:33.762Z,95.12
2018-10-12T07:10:33.725Z,95.51
2018-10-12T07:11:33.669Z,94.35
2018-10-12T07:12:33.616Z,94.64
2018-10-12T07:13:33.637Z,94.17
2018-10-12T07:14:33.524Z,93.63
2018-10-12T07:15:33.473Z,93.44
2018-10-12T07:16:33.421Z,94.12
2018-10-12T07:17:33.379Z,93.25
2018-10-12T07:18:33.353Z,93.35
2018-10-12T07:19:33.376Z,93.63
2018-10-12T07:20:33.229Z,93.15
2018-10-12T07:21:33.181Z,92.96
2018-10-12T07:22:33.131Z,93.01
2018-10-12T07:23:33.110Z,91.96
2018-10-12T07:24:33.038Z,92.05
2018-10-12T07:25:32.988Z,91.96
2018-10-12T07:26:32.943Z,91.47
2018-10-12T07:27:32.899Z,91.47
2018-10-12T07:28:32.869Z,91.66
2018-10-12T07:29:32.802Z,91.66
2018-10-12T07:30:32.756Z,91.09
2018-10-12T07:31:32.767Z,90.80
2018-10-12T07:32:32.658Z,90.90
2018-10-12T07:33:32.638Z,90.70
2018-10-12T07:34:32.570Z,90.84
2018-10-12T07:35:32.514Z,90.08
2018-10-12T07:36:32.462Z,90.17
2018-10-12T07:37:32.443Z,90.46
2018-10-12T07:38:32.402Z,90.17
2018-10-12T07:39:32.326Z,90.27
2018-10-12T07:40:32.274Z,90.66
2018-10-12T07:41:32.228Z,89.79
2018-10-12T07:42:32.218Z,90.56
2018-10-12T07:43:32.132Z,90.37
2018-10-12T07:44:32.108Z,89.89
2018-10-12T07:45:32.075Z,89.26
2018-10-12T07:46:31.990Z,88.97
2018-10-12T07:47:31.997Z,89.45
2018-10-12T07:48:31.897Z,89.16
2018-10-12T07:49:31.872Z,89.16
2018-10-12T07:50:31.801Z,88.59
2018-10-12T07:51:31.756Z,88.20
2018-10-12T07:52:31.712Z,88.30
2018-10-12T07:53:31.660Z,88.06
2018-10-12T07:54:31.639Z,89.36
2018-10-12T07:55:31.567Z,89.36
2018-10-12T07:56:31.514Z,88.39
2018-10-12T07:57:31.473Z,89.26
2018-10-12T07:58:31.429Z,89.07
2018-10-12T07:59:31.400Z,89.07
2018-10-12T08:00:31.384Z,89.07
2018-10-12T08:01:31.285Z,89.26
2018-10-12T08:02:31.238Z,89.40
2018-10-12T08:03:31.190Z,89.50
2018-10-12T08:04:31.172Z,88.34
2018-10-12T08:05:31.096Z,88.24
2018-10-12T08:06:31.103Z,88.06
2018-10-12T08:07:31.002Z,87.76
2018-10-12T08:08:30.952Z,87.76
2018-10-12T08:09:30.967Z,87.67
2018-10-12T08:10:30.873Z,87.67
2018-10-12T08:11:30.821Z,87.48
2018-10-12T08:12:30.772Z,87.67
2018-10-12T08:13:30.748Z,87.04
2018-10-12T08:14:30.701Z,88.00
2018-10-12T08:15:30.629Z,87.38
2018-10-12T08:16:30.587Z,87.38
2018-10-12T08:17:30.537Z,87.23
2018-10-12T08:18:30.494Z,87.90
2018-10-12T08:19:30.470Z,87.62
2018-10-12T08:20:30.431Z,86.85
2018-10-12T08:21:30.347Z,86.85
2018-10-12T08:22:30.298Z,86.18
2018-10-12T08:23:30.249Z,86.56
2018-10-12T08:24:30.229Z,86.75
2018-10-12T08:25:30.163Z,86.46
2018-10-12T08:26:30.110Z,86.94
2018-10-12T08:27:30.068Z,86.85
2018-10-12T08:28:30.025Z,85.98
2018-10-12T08:29:29.997Z,85.69
2018-10-12T08:30:29.925Z,86.08
2018-10-12T08:31:29.957Z,85.98
2018-10-12T08:32:29.836Z,86.41
2018-10-12T08:33:29.790Z,86.22
2018-10-12T08:34:29.762Z,85.93
2018-10-12T08:35:29.692Z,86.02
2018-10-12T08:36:29.661Z,85.93
2018-10-12T08:37:29.601Z,86.31
2018-10-12T08:38:29.567Z,86.79
2018-10-12T08:39:29.551Z,85.16
2018-10-12T08:40:29.466Z,85.35
2018-10-12T08:41:29.414Z,86.51
2018-10-12T08:42:29.366Z,86.22
2018-10-12T08:43:29.326Z,86.12
2018-10-12T08:44:29.295Z,85.93
2018-10-12T08:45:29.228Z,85.93
2018-10-12T08:46:29.180Z,85.83
2018-10-12T08:47:29.133Z,85.54
2018-10-12T08:48:29.089Z,85.16
2018-10-12T08:49:29.067Z,85.35
2018-10-12T08:50:28.995Z,85.74
2018-10-12T08:51:28.952Z,85.25
2018-10-12T08:52:28.903Z,85.93
2018-10-12T08:53:28.855Z,86.31
2018-10-12T08:54:28.834Z,86.02
2018-10-12T08:55:28.816Z,85.20
2018-10-12T08:56:28.717Z,84.53
2018-10-12T08:57:28.677Z,83.85
2018-10-12T08:58:28.624Z,83.47
2018-10-12T08:59:28.606Z,83.75
2018-10-12T09:00:28.536Z,83.18
2018-10-12T09:01:28.523Z,83.28
2018-10-12T09:02:28.440Z,83.75
2018-10-12T09:03:28.392Z,82.70
2018-10-12T09:04:28.380Z,83.56
2018-10-12T09:05:28.300Z,83.70
2018-10-12T09:06:28.251Z,83.61
2018-10-12T09:07:28.211Z,83.28
2018-10-12T09:08:28.162Z,83.61
2018-10-12T09:09:28.159Z,81.93
2018-10-12T09:10:28.077Z,81.77
2018-10-12T09:11:28.021Z,82.06
2018-10-12T09:12:27.974Z,81.20
2018-10-12T09:13:27.930Z,81.68
2018-10-12T09:14:27.886Z,81.68
2018-10-12T09:15:27.866Z,81.87
2018-10-12T09:16:27.848Z,82.06
2018-10-12T09:17:27.747Z,82.35
2018-10-12T09:18:27.701Z,82.16
2018-10-12T09:19:27.659Z,81.20
2018-10-12T09:20:27.677Z,80.91
2018-10-12T09:21:27.561Z,80.04
2018-10-12T09:22:27.514Z,80.33
2018-10-12T09:23:27.470Z,80.52
2018-10-12T09:24:27.427Z,80.56
2018-10-12T09:25:27.405Z,81.24
2018-10-12T09:26:27.327Z,81.14
2018-10-12T09:27:27.282Z,81.04
2018-10-12T09:28:27.240Z,80.18
2018-10-12T09:29:27.191Z,80.76
2018-10-12T09:30:27.235Z,80.37
2018-10-12T09:31:27.103Z,80.18
2018-10-12T09:32:27.054Z,80.56
2018-10-12T09:33:27.008Z,80.46
2018-10-12T09:34:26.962Z,79.31
2018-10-12T09:35:26.939Z,80.08
2018-10-12T09:36:26.889Z,80.56
2018-10-12T09:37:26.823Z,80.46
2018-10-12T09:38:26.776Z,80.94
2018-10-12T09:39:26.752Z,80.76
2018-10-12T09:40:26.712Z,78.83
2018-10-12T09:41:26.637Z,80.18
2018-10-12T09:42:26.592Z,79.98
2018-10-12T09:43:26.546Z,80.46
2018-10-12T09:44:26.498Z,79.74
2018-10-12T09:45:26.477Z,79.64
2018-10-12T09:46:26.410Z,79.41
2018-10-12T09:47:26.362Z,80.08
2018-10-12T09:48:26.318Z,79.79
2018-10-12T09:49:26.271Z,79.50
2018-10-12T09:50:26.352Z,79.25
2018-10-12T09:51:26.178Z,79.74
2018-10-12T09:52:26.138Z,79.83
2018-10-12T09:53:26.090Z,79.16
2018-10-12T09:54:26.039Z,78.86
2018-10-12T09:55:26.021Z,78.77
2018-10-12T09:56:25.948Z,78.58
2018-10-12T09:57:25.908Z,78.58
2018-10-12T09:58:25.860Z,79.00
2018-10-12T09:59:25.811Z,78.33
2018-10-12T10:00:25.789Z,79.10
2018-10-12T10:01:25.719Z,79.29
2018-10-12T10:02:25.685Z,79.87
2018-10-12T10:03:25.627Z,79.29
2018-10-12T10:04:25.583Z,78.42
2018-10-12T10:05:25.560Z,78.33
2018-10-12T10:06:25.491Z,77.36
2018-10-12T10:07:25.486Z,77.94
2018-10-12T10:08:25.621Z,76.68
2018-10-12T10:09:25.352Z,76.68
2018-10-12T10:10:25.347Z,76.98
2018-10-12T10:11:25.261Z,76.59
2018-10-12T10:12:25.216Z,76.78
2018-10-12T10:13:25.167Z,76.68
2018-10-12T10:14:25.129Z,77.26
2018-10-12T10:15:25.130Z,76.98
2018-10-12T10:16:25.030Z,77.94
2018-10-12T10:17:24.983Z,78.33
2018-10-12T10:18:24.940Z,77.50
2018-10-12T10:19:24.970Z,78.13
2018-10-12T10:20:24.869Z,77.46
2018-10-12T10:21:24.800Z,78.13
2018-10-12T10:22:24.820Z,79.00
2018-10-12T10:23:24.709Z,78.61
2018-10-12T10:24:24.667Z,78.17
2018-10-12T10:25:24.646Z,78.36
2018-10-12T10:26:24.581Z,78.17
2018-10-12T10:27:24.528Z,78.36
2018-10-12T10:28:24.484Z,78.17
2018-10-12T10:29:24.486Z,77.88
2018-10-12T10:30:24.418Z,77.21
2018-10-12T10:31:24.346Z,76.92
2018-10-12T10:32:24.306Z,77.01
2018-10-12T10:33:24.258Z,76.53
2018-10-12T10:34:24.212Z,76.63
2018-10-12T10:35:24.205Z,77.50
2018-10-12T10:36:24.122Z,77.50
2018-10-12T10:37:24.069Z,77.11
2018-10-12T10:38:24.033Z,76.72
2018-10-12T10:39:23.979Z,76.43
2018-10-12T10:40:24.063Z,76.72
2018-10-12T10:41:23.917Z,76.82
2018-10-12T10:42:23.848Z,76.53
2018-10-12T10:43:23.801Z,76.63
2018-10-12T10:44:23.752Z,76.92
2018-10-12T10:45:23.757Z,76.76
2018-10-12T10:46:23.695Z,76.86
2018-10-12T10:47:23.619Z,76.86
2018-10-12T10:48:23.573Z,77.63
2018-10-12T10:49:23.526Z,77.34
2018-10-12T10:50:23.484Z,76.76
2018-10-12T10:51:23.460Z,76.95
2018-10-12T10:52:23.390Z,75.89
2018-10-12T10:53:23.354Z,75.70
2018-10-12T10:54:23.297Z,76.37
2018-10-12T10:55:23.255Z,75.41
2018-10-12T10:56:23.231Z,75.41
2018-10-12T10:57:23.164Z,75.70
2018-10-12T10:58:23.119Z,75.84
2018-10-12T10:59:23.113Z,76.22
2018-10-12T11:00:23.027Z,76.22
2018-10-12T11:01:23.008Z,75.84
2018-10-12T11:02:22.938Z,76.12
2018-10-12T11:03:22.889Z,75.35
2018-10-12T11:04:22.848Z,74.58
2018-10-12T11:05:22.801Z,74.10
2018-10-12T11:06:22.854Z,74.58
2018-10-12T11:07:22.716Z,75.26
2018-10-12T11:08:22.667Z,75.16
2018-10-12T11:09:22.621Z,74.00
2018-10-12T11:10:22.575Z,73.94
2018-10-12T11:11:22.555Z,74.71
2018-10-12T11:12:22.562Z,74.38
2018-10-12T11:13:22.462Z,74.77
2018-10-12T11:14:22.401Z,73.90
2018-10-12T11:15:22.355Z,73.03
2018-10-12T11:16:22.327Z,73.42
2018-10-12T11:17:22.261Z,73.71
2018-10-12T11:18:22.216Z,74.87
2018-10-12T11:19:22.220Z,73.80
2018-10-12T11:20:22.124Z,73.32
2018-10-12T11:21:22.099Z,73.71
2018-10-12T11:22:22.032Z,73.71
2018-10-12T11:23:22.006Z,73.71
2018-10-12T11:24:21.997Z,73.55
2018-10-12T11:25:21.901Z,73.74
2018-10-12T11:26:21.906Z,73.84
2018-10-12T11:27:21.804Z,73.07
2018-10-12T11:28:21.764Z,73.55
2018-10-12T11:29:21.715Z,72.58
2018-10-12T11:30:21.673Z,72.00
2018-10-12T11:31:21.649Z,71.72
2018-10-12T11:32:21.577Z,70.75
2018-10-12T11:33:21.533Z,71.04
2018-10-12T11:34:21.494Z,71.17
2018-10-12T11:35:21.450Z,72.00
2018-10-12T11:36:21.437Z,71.91
2018-10-12T11:37:21.360Z,71.26
2018-10-12T11:38:21.362Z,71.62
2018-10-12T11:39:21.264Z,72.00
2018-10-12T11:40:21.226Z,71.52
2018-10-12T11:41:21.206Z,71.62
2018-10-12T11:42:21.132Z,71.75
2018-10-12T11:43:21.111Z,71.84
2018-10-12T11:44:21.040Z,71.56
2018-10-12T11:45:21.061Z,71.17
2018-10-12T11:46:20.978Z,71.17
2018-10-12T11:47:20.904Z,70.98
2018-10-12T11:48:20.859Z,72.14
2018-10-12T11:49:20.854Z,72.42
2018-10-12T11:50:20.777Z,71.75
2018-10-12T11:51:20.747Z,71.23
2018-10-12T11:52:20.679Z,72.24
2018-10-12T11:53:20.640Z,71.75
2018-10-12T11:54:20.586Z,71.36
2018-10-12T11:55:20.545Z,71.36
2018-10-12T11:56:20.523Z,70.88
2018-10-12T11:57:20.455Z,70.78
2018-10-12T11:58:20.419Z,70.98
2018-10-12T11:59:20.372Z,70.78
2018-10-12T12:00:20.318Z,70.50
2018-10-12T12:01:20.297Z,70.62
2018-10-12T12:02:20.328Z,70.72
2018-10-12T12:03:20.199Z,69.62
2018-10-12T12:04:20.140Z,70.62
2018-10-12T12:05:20.099Z,70.62
2018-10-12T12:06:20.079Z,70.20
2018-10-12T12:07:20.111Z,69.62
2018-10-12T12:08:19.969Z,70.14
2018-10-12T12:09:19.916Z,69.92
2018-10-12T12:10:19.875Z,70.68
2018-10-12T12:11:19.823Z,70.59
2018-10-12T12:12:19.812Z,71.08
2018-10-12T12:13:19.742Z,71.11
2018-10-12T12:14:19.693Z,70.78
2018-10-12T12:15:19.651Z,70.01
2018-10-12T12:16:19.603Z,69.27
2018-10-12T12:17:19.584Z,69.56
2018-10-12T12:18:19.517Z,69.85
2018-10-12T12:19:19.538Z,69.85
2018-10-12T12:20:19.422Z,68.79
2018-10-12T12:21:19.374Z,69.11
2018-10-12T12:22:19.360Z,69.50
2018-10-12T12:23:19.289Z,68.79
2018-10-12T12:24:19.242Z,69.46
2018-10-12T12:25:19.199Z,69.17
2018-10-12T12:26:19.154Z,69.37
2018-10-12T12:27:19.130Z,70.04
2018-10-12T12:28:19.065Z,69.66
2018-10-12T12:29:19.023Z,70.04
2018-10-12T12:30:18.977Z,70.24
2018-10-12T12:31:18.936Z,70.72
2018-10-12T12:32:18.907Z,71.01
2018-10-12T12:33:18.835Z,69.75
2018-10-12T12:34:18.796Z,70.04
2018-10-12T12:35:18.968Z,69.27
2018-10-12T12:36:18.765Z,69.95
2018-10-12T12:37:18.693Z,70.04
2018-10-12T12:38:18.626Z,68.98
2018-10-12T12:39:18.570Z,69.66
2018-10-12T12:40:18.527Z,70.04
2018-10-12T12:41:18.488Z,69.85
2018-10-12T12:42:18.466Z,70.43
2018-10-12T12:43:18.396Z,69.37
2018-10-12T12:44:18.350Z,69.75
2018-10-12T12:45:18.307Z,69.17
2018-10-12T12:46:18.259Z,69.27
2018-10-12T12:47:18.325Z,70.04
2018-10-12T12:48:18.313Z,69.08
2018-10-12T12:49:18.506Z,69.37
2018-10-12T12:50:18.079Z,69.17
2018-10-12T12:51:18.041Z,69.75
2018-10-12T12:52:18.022Z,69.46